createdAt,value
2022-08-19T00:01:59.017Z,6.50
2022-08-19T00:04:30.873Z,6.10
2022-08-19T00:06:58.772Z,6.50
2022-08-19T00:09:26.700Z,6.60
2022-08-19T00:11:56.351Z,6.50
2022-08-19T00:14:24.892Z,6.30
2022-08-19T00:16:55.489Z,7.10
2022-08-19T00:19:24.449Z,6.20
2022-08-19T00:21:52.425Z,6.60
2022-08-19T00:24:19.887Z,6.40
2022-08-19T00:26:47.242Z,7.10
2022-08-19T00:29:16.061Z,6.70
2022-08-19T00:31:44.085Z,6.60
2022-08-19T00:34:13.023Z,6.80
2022-08-19T00:36:41.211Z,6.50
2022-08-19T00:39:08.318Z,6.60
2022-08-19T00:41:35.274Z,6.90
2022-08-19T00:44:12.195Z,7.10
2022-08-19T00:46:42.604Z,6.70
2022-08-19T00:49:17.207Z,6.70
2022-08-19T00:51:48.663Z,7.50
2022-08-19T00:54:16.091Z,7.00
2022-08-19T00:56:43.612Z,6.60
2022-08-19T00:59:10.700Z,6.90
2022-08-19T01:01:41.370Z,6.70
2022-08-19T01:04:08.737Z,7.00
2022-08-19T01:06:38.227Z,7.30
2022-08-19T01:09:05.664Z,7.10
2022-08-19T01:11:36.397Z,7.10
2022-08-19T01:14:04.356Z,7.60
2022-08-19T01:16:35.651Z,7.30
2022-08-19T01:19:02.983Z,7.40
2022-08-19T01:21:42.101Z,7.30
2022-08-19T01:24:09.466Z,6.70
2022-08-19T01:26:42.755Z,7.60
2022-08-19T01:29:11.582Z,6.70
2022-08-19T01:31:40.136Z,6.90
2022-08-19T01:34:08.735Z,7.00
2022-08-19T01:36:40.347Z,7.40
2022-08-19T01:39:11.874Z,7.70
2022-08-19T01:41:39.070Z,7.70
2022-08-19T01:44:18.274Z,7.40
2022-08-19T01:46:48.058Z,7.80
2022-08-19T01:49:15.927Z,8.10
2022-08-19T01:51:42.959Z,8.00
2022-08-19T01:54:11.433Z,7.90
2022-08-19T01:56:39.252Z,8.00
2022-08-19T01:59:14.418Z,7.20
2022-08-19T02:01:42.292Z,7.20
2022-08-19T02:04:09.634Z,7.50
2022-08-19T02:06:38.228Z,7.50
2022-08-19T02:09:06.349Z,7.40
2022-08-19T02:11:42.717Z,7.70
2022-08-19T02:14:10.349Z,7.70
2022-08-19T02:16:38.116Z,8.30
2022-08-19T02:19:05.607Z,7.70
2022-08-19T02:21:32.772Z,7.40
2022-08-19T02:23:59.560Z,7.30
2022-08-19T02:26:38.924Z,8.00
2022-08-19T02:29:06.727Z,7.30
2022-08-19T02:31:42.827Z,8.20
2022-08-19T02:34:09.913Z,8.20
2022-08-19T02:39:04.502Z,8.30
2022-08-19T02:41:33.701Z,8.00
2022-08-19T02:44:29.172Z,7.60
2022-08-19T02:46:52.929Z,8.60
2022-08-19T02:49:20.631Z,8.10
2022-08-19T02:51:48.237Z,8.60
2022-08-19T02:54:15.748Z,8.40
2022-08-19T02:56:44.145Z,8.70
2022-08-19T02:59:12.152Z,8.10
2022-08-19T03:01:43.505Z,9.60
2022-08-19T03:04:12.992Z,8.60
2022-08-19T03:06:43.559Z,8.50
2022-08-19T03:09:11.600Z,8.30
2022-08-19T03:11:38.509Z,8.20
2022-08-19T03:14:07.387Z,8.50
2022-08-19T03:16:45.601Z,8.20
2022-08-19T03:19:13.179Z,7.80
2022-08-19T03:21:41.175Z,8.40
2022-08-19T03:24:09.830Z,8.20
2022-08-19T03:26:48.876Z,8.00
2022-08-19T03:29:30.086Z,8.70
2022-08-19T03:31:59.626Z,7.80
2022-08-19T03:34:29.266Z,8.00
2022-08-19T03:36:58.866Z,7.90
2022-08-19T03:39:26.839Z,8.00
2022-08-19T03:42:32.841Z,7.00
2022-08-19T03:44:46.066Z,7.90
2022-08-19T03:47:17.158Z,7.70
2022-08-19T03:49:45.177Z,7.50
2022-08-19T03:52:12.534Z,7.40
2022-08-19T03:54:40.299Z,7.70
2022-08-19T03:57:08.185Z,7.30
2022-08-19T03:59:37.488Z,7.30
2022-08-19T04:02:21.552Z,7.50
2022-08-19T04:04:48.687Z,7.70
2022-08-19T04:07:17.242Z,8.00
2022-08-19T04:09:44.482Z,7.10
2022-08-19T04:12:11.224Z,6.80
2022-08-19T04:14:38.432Z,7.20
2022-08-19T04:17:06.026Z,7.50
2022-08-19T04:19:34.714Z,6.90
2022-08-19T04:22:14.062Z,6.80
2022-08-19T04:24:41.428Z,6.70
2022-08-19T04:27:08.614Z,6.30
2022-08-19T04:29:35.399Z,6.40
2022-08-19T04:32:09.000Z,6.80
2022-08-19T04:35:01.138Z,6.10
2022-08-19T04:37:27.292Z,6.30
2022-08-19T04:42:59.892Z,6.40
2022-08-19T04:45:27.070Z,6.90
2022-08-19T04:47:58.699Z,6.20
2022-08-19T04:50:45.096Z,6.30
2022-08-19T04:53:12.711Z,6.40
2022-08-19T04:55:41.927Z,8.10
2022-08-19T04:58:09.264Z,8.80
2022-08-19T05:00:39.729Z,6.90
2022-08-19T05:03:07.590Z,6.70
2022-08-19T05:05:44.407Z,7.00
2022-08-19T05:08:31.486Z,6.50
2022-08-19T05:10:59.270Z,6.30
2022-08-19T05:13:27.788Z,5.90
2022-08-19T05:15:59.910Z,5.70
2022-08-19T05:18:45.735Z,5.60
2022-08-19T05:21:44.976Z,5.70
2022-08-19T05:24:12.668Z,5.70
2022-08-19T05:26:47.163Z,5.30
2022-08-19T05:29:16.427Z,5.40
2022-08-19T05:31:44.045Z,5.40
2022-08-19T05:34:18.266Z,5.40
2022-08-19T05:36:47.256Z,5.90
2022-08-19T05:39:17.014Z,6.20
2022-08-19T05:41:45.522Z,7.20
2022-08-19T05:44:12.932Z,7.10
2022-08-19T05:46:40.636Z,7.10
2022-08-19T05:49:08.967Z,6.70
2022-08-19T05:51:38.399Z,7.50
2022-08-19T05:54:07.069Z,9.00
2022-08-19T05:56:37.621Z,8.70
2022-08-19T05:59:08.181Z,8.30
2022-08-19T06:01:38.805Z,28.80
2022-08-19T06:04:05.898Z,22.00
2022-08-19T06:06:35.120Z,7.90
2022-08-19T06:09:06.508Z,9.80
2022-08-19T06:11:44.472Z,7.00
2022-08-19T06:14:20.311Z,6.10
2022-08-19T06:16:55.096Z,23.30
2022-08-19T06:19:25.137Z,6.30
2022-08-19T06:21:53.306Z,17.70
2022-08-19T06:24:26.170Z,6.30
2022-08-19T06:26:59.254Z,4.60
2022-08-19T06:29:30.282Z,6.00
2022-08-19T06:32:00.144Z,5.80
2022-08-19T06:34:29.179Z,6.40
2022-08-19T06:36:57.427Z,5.20
2022-08-19T06:39:27.014Z,5.10
2022-08-19T06:41:58.972Z,5.10
2022-08-19T06:44:30.456Z,5.20
2022-08-19T06:46:59.614Z,5.00
2022-08-19T06:49:31.929Z,6.90
2022-08-19T06:52:01.951Z,6.40
2022-08-19T06:54:30.716Z,6.30
2022-08-19T06:57:05.004Z,5.50
2022-08-19T06:59:35.539Z,5.20
2022-08-19T07:02:06.506Z,5.30
2022-08-19T07:04:35.083Z,4.80
2022-08-19T07:07:21.282Z,5.20
2022-08-19T07:09:51.587Z,5.50
2022-08-19T07:12:26.021Z,5.50
2022-08-19T07:14:53.755Z,5.90
2022-08-19T07:17:21.686Z,5.20
2022-08-19T07:19:48.645Z,5.30
2022-08-19T07:22:15.925Z,5.30
2022-08-19T07:24:51.538Z,5.30
2022-08-19T07:27:24.694Z,5.20
2022-08-19T07:29:57.658Z,5.10
2022-08-19T07:32:27.938Z,5.30
2022-08-19T07:34:57.130Z,5.90
2022-08-19T07:37:33.125Z,5.50
2022-08-19T07:40:01.329Z,4.90
2022-08-19T07:42:30.570Z,5.40
2022-08-19T07:44:58.407Z,4.90
2022-08-19T07:47:49.171Z,4.90
2022-08-19T07:50:12.559Z,5.00
2022-08-19T07:52:40.446Z,5.40
2022-08-19T07:55:40.153Z,5.10
2022-08-19T07:57:56.177Z,4.80
2022-08-19T08:00:24.732Z,4.80
2022-08-19T08:02:52.928Z,5.50
2022-08-19T08:05:43.622Z,5.80
2022-08-19T08:08:30.572Z,5.50
2022-08-19T08:10:58.264Z,6.10
2022-08-19T08:13:26.569Z,6.60
2022-08-19T08:15:55.909Z,6.50
2022-08-19T08:18:27.550Z,5.90
2022-08-19T08:20:55.587Z,6.20
2022-08-19T08:23:26.485Z,4.90
2022-08-19T08:25:56.549Z,5.00
2022-08-19T08:28:25.305Z,5.70
2022-08-19T08:30:53.394Z,5.60
2022-08-19T08:33:33.558Z,5.50
2022-08-19T08:36:09.506Z,5.90
2022-08-19T08:38:41.694Z,5.40
2022-08-19T08:41:45.457Z,5.70
2022-08-19T08:44:28.970Z,6.00
2022-08-19T08:47:07.826Z,6.20
2022-08-19T08:49:37.710Z,5.90
2022-08-19T08:52:07.788Z,5.50
2022-08-19T08:54:55.001Z,4.90
2022-08-19T08:57:45.510Z,4.50
2022-08-19T09:00:19.418Z,4.60
2022-08-19T09:02:50.405Z,5.00
2022-08-19T09:05:22.374Z,5.00
2022-08-19T09:07:57.028Z,4.70
2022-08-19T09:10:44.430Z,5.30
2022-08-19T09:13:37.509Z,4.40
2022-08-19T09:16:27.949Z,5.10
2022-08-19T09:19:03.374Z,5.20
2022-08-19T09:21:34.392Z,5.10
2022-08-19T09:24:03.469Z,5.30
2022-08-19T09:26:48.676Z,4.20
2022-08-19T09:29:22.472Z,3.70
2022-08-19T09:31:50.943Z,4.30
2022-08-19T09:34:20.970Z,5.90
2022-08-19T09:36:50.578Z,4.70
2022-08-19T09:39:18.428Z,3.90
2022-08-19T09:41:47.453Z,3.80
2022-08-19T09:44:16.908Z,4.30
2022-08-19T09:46:47.843Z,5.10
2022-08-19T09:49:16.035Z,4.70
2022-08-19T09:51:50.812Z,5.50
2022-08-19T09:54:23.521Z,5.30
2022-08-19T09:56:52.703Z,5.30
2022-08-19T09:59:19.690Z,5.80
2022-08-19T10:01:46.906Z,5.10
2022-08-19T10:04:19.727Z,4.70
2022-08-19T10:06:51.863Z,5.40
2022-08-19T10:09:26.352Z,4.50
2022-08-19T10:12:02.477Z,5.10
2022-08-19T10:14:29.883Z,5.80
2022-08-19T10:16:57.481Z,5.20
2022-08-19T10:19:27.114Z,4.70
2022-08-19T10:21:55.604Z,4.50
2022-08-19T10:24:28.656Z,4.40
2022-08-19T10:26:57.247Z,4.40
2022-08-19T10:29:32.491Z,4.90
2022-08-19T10:32:02.451Z,5.60
2022-08-19T10:34:31.339Z,4.20
2022-08-19T10:37:00.983Z,4.80
2022-08-19T10:39:32.811Z,4.20
2022-08-19T10:42:16.164Z,4.30
2022-08-19T10:44:43.301Z,3.90
2022-08-19T10:47:17.212Z,3.70
2022-08-19T10:50:12.105Z,4.20
2022-08-19T10:52:49.054Z,4.50
2022-08-19T10:55:38.323Z,4.70
2022-08-19T10:58:05.742Z,4.30
2022-08-19T11:00:33.430Z,4.70
2022-08-19T11:03:00.281Z,4.60
2022-08-19T11:05:27.212Z,3.70
2022-08-19T11:07:54.565Z,4.20
2022-08-19T11:10:22.355Z,4.30
2022-08-19T11:12:49.446Z,3.90
2022-08-19T11:15:16.893Z,4.00
2022-08-19T11:17:44.894Z,3.80
2022-08-19T11:20:16.265Z,4.60
2022-08-19T11:22:43.406Z,4.00
2022-08-19T11:25:14.643Z,3.50
2022-08-19T11:27:45.586Z,3.70
2022-08-19T11:30:13.906Z,3.80
2022-08-19T11:32:47.101Z,4.40
2022-08-19T11:35:17.002Z,3.70
2022-08-19T11:37:46.291Z,4.20
2022-08-19T11:40:13.572Z,4.40
2022-08-19T11:42:56.736Z,4.00
2022-08-19T11:45:27.195Z,3.60
2022-08-19T11:47:54.489Z,3.90
2022-08-19T11:50:21.934Z,3.30
2022-08-19T11:52:53.372Z,3.20
2022-08-19T11:55:20.824Z,3.10
2022-08-19T11:57:48.000Z,2.60
2022-08-19T12:00:15.828Z,3.00
2022-08-19T12:02:43.365Z,3.30
2022-08-19T12:05:12.887Z,2.70
2022-08-19T12:07:41.882Z,3.00
2022-08-19T12:10:09.543Z,2.80
2022-08-19T12:12:43.541Z,2.90
2022-08-19T12:15:12.041Z,2.60
2022-08-19T12:17:39.393Z,2.60
2022-08-19T12:20:07.935Z,2.50
2022-08-19T12:22:35.962Z,2.10
2022-08-19T12:25:03.490Z,2.00
2022-08-19T12:27:39.916Z,1.90
2022-08-19T12:30:10.242Z,2.40
2022-08-19T12:32:37.265Z,2.20
2022-08-19T12:35:04.594Z,2.10
2022-08-19T12:37:33.470Z,2.00
2022-08-19T12:40:00.610Z,2.00
2022-08-19T12:42:27.952Z,1.40
2022-08-19T12:44:55.080Z,1.90
2022-08-19T12:47:22.157Z,1.40
2022-08-19T12:49:55.573Z,1.60
2022-08-19T12:52:24.805Z,1.20
2022-08-19T12:54:55.058Z,1.30
2022-08-19T12:57:31.459Z,1.30
2022-08-19T13:00:07.853Z,1.30
2022-08-19T13:02:38.820Z,1.30
2022-08-19T13:05:09.378Z,1.30
2022-08-19T13:07:38.169Z,1.40
2022-08-19T13:10:06.737Z,1.20
2022-08-19T13:12:34.201Z,1.30
2022-08-19T13:15:01.037Z,1.40
2022-08-19T13:17:31.761Z,1.20
2022-08-19T13:20:01.833Z,1.20
2022-08-19T13:22:28.892Z,1.20
2022-08-19T13:24:55.815Z,1.40
2022-08-19T13:27:22.888Z,1.20
2022-08-19T13:30:08.723Z,1.20
2022-08-19T13:32:54.054Z,1.30
2022-08-19T13:35:20.973Z,1.20
2022-08-19T13:37:51.286Z,1.10
2022-08-19T13:40:24.969Z,1.30
2022-08-19T13:42:54.526Z,1.10
2022-08-19T13:45:23.940Z,1.00
2022-08-19T13:47:55.858Z,1.10
2022-08-19T13:50:28.917Z,1.10
2022-08-19T13:52:59.061Z,1.10
2022-08-19T13:55:27.797Z,1.00
2022-08-19T13:58:00.140Z,1.10
2022-08-19T14:00:29.234Z,1.10
2022-08-19T14:02:58.415Z,1.10
2022-08-19T14:05:27.200Z,1.00
2022-08-19T14:07:58.037Z,1.10
2022-08-19T14:10:25.766Z,0.90
2022-08-19T14:12:59.097Z,1.00
2022-08-19T14:15:27.063Z,0.90
2022-08-19T14:17:55.163Z,0.90
2022-08-19T14:20:25.972Z,0.70
2022-08-19T14:22:54.016Z,0.80
2022-08-19T14:25:24.546Z,1.00
2022-08-19T14:27:51.954Z,1.00
2022-08-19T14:30:26.495Z,0.90
2022-08-19T14:32:54.047Z,1.00
2022-08-19T14:35:22.825Z,0.80
2022-08-19T14:37:50.617Z,0.80
2022-08-19T14:40:22.187Z,0.80
2022-08-19T14:42:49.726Z,0.90
2022-08-19T14:45:16.485Z,0.70
2022-08-19T14:47:43.254Z,0.90
2022-08-19T14:50:18.361Z,0.80
2022-08-19T14:52:48.699Z,0.90
2022-08-19T14:55:16.912Z,0.90
2022-08-19T14:57:44.154Z,0.70
2022-08-19T15:00:14.687Z,0.70
2022-08-19T15:02:42.761Z,0.90
2022-08-19T15:05:14.031Z,0.90
2022-08-19T15:07:41.828Z,0.70
2022-08-19T15:10:12.040Z,0.90
2022-08-19T15:12:43.635Z,0.70
2022-08-19T15:15:14.779Z,0.60
2022-08-19T15:17:49.465Z,0.60
2022-08-19T15:20:22.069Z,0.70
2022-08-19T15:22:49.174Z,0.60
2022-08-19T15:25:17.784Z,0.80
2022-08-19T15:27:44.876Z,0.70
2022-08-19T15:30:12.086Z,0.80
2022-08-19T15:32:40.028Z,0.60
2022-08-19T15:35:08.075Z,0.70
2022-08-19T15:37:37.678Z,0.70
2022-08-19T15:40:07.530Z,0.60
2022-08-19T15:42:36.855Z,0.60
2022-08-19T15:45:07.119Z,0.50
2022-08-19T15:47:34.657Z,0.70
2022-08-19T15:50:17.074Z,0.60
2022-08-19T15:52:58.313Z,0.70
2022-08-19T15:55:34.875Z,0.70
2022-08-19T15:58:28.534Z,0.80
2022-08-19T16:01:16.629Z,0.80
2022-08-19T16:04:05.817Z,0.70
2022-08-19T16:06:45.296Z,1.00
2022-08-19T16:09:13.783Z,0.90
2022-08-19T16:11:45.428Z,0.90
2022-08-19T16:14:12.684Z,0.80
2022-08-19T16:16:39.407Z,0.80
2022-08-19T16:19:10.206Z,0.80
2022-08-19T16:21:41.419Z,0.70
2022-08-19T16:24:10.650Z,0.60
2022-08-19T16:26:37.528Z,0.70
2022-08-19T16:29:08.993Z,0.80
2022-08-19T16:31:39.562Z,0.70
2022-08-19T16:34:06.974Z,0.60
2022-08-19T16:36:33.783Z,0.80
2022-08-19T16:39:01.121Z,0.70
2022-08-19T16:41:28.825Z,0.70
2022-08-19T16:43:55.791Z,0.70
2022-08-19T16:46:24.634Z,0.60
2022-08-19T16:48:54.520Z,0.60
2022-08-19T16:51:22.774Z,1.10
2022-08-19T16:53:52.981Z,1.10
2022-08-19T16:56:21.266Z,1.00
2022-08-19T16:58:50.193Z,0.80
2022-08-19T17:01:17.539Z,0.70
2022-08-19T17:03:44.431Z,0.80
2022-08-19T17:06:15.839Z,1.00
2022-08-19T17:08:48.597Z,0.80
2022-08-19T17:11:18.577Z,0.70
2022-08-19T17:13:47.576Z,0.70
2022-08-19T17:16:16.070Z,0.70
2022-08-19T17:18:42.998Z,0.60
2022-08-19T17:21:09.845Z,0.70
2022-08-19T17:23:43.031Z,2.70
2022-08-19T17:26:18.023Z,23.90
2022-08-19T17:28:49.664Z,10.30
2022-08-19T17:31:20.075Z,16.40
2022-08-19T17:33:48.427Z,3.00
2022-08-19T17:36:17.196Z,1.40
2022-08-19T17:38:44.728Z,0.80
2022-08-19T17:41:11.651Z,0.60
2022-08-19T17:43:43.129Z,0.70
2022-08-19T17:46:18.128Z,0.60
2022-08-19T17:48:52.275Z,0.60
2022-08-19T17:51:25.346Z,0.60
2022-08-19T17:53:53.817Z,0.60
2022-08-19T17:56:22.219Z,0.90
2022-08-19T17:58:57.899Z,0.80
2022-08-19T18:01:35.504Z,0.70
2022-08-19T18:04:17.316Z,1.50
2022-08-19T18:06:46.622Z,1.20
2022-08-19T18:09:24.034Z,1.00
2022-08-19T18:11:53.492Z,0.80
2022-08-19T18:14:33.036Z,1.00
2022-08-19T18:17:10.150Z,1.50
2022-08-19T18:19:41.571Z,0.80
2022-08-19T18:22:22.646Z,0.80
2022-08-19T18:24:49.579Z,0.90
2022-08-19T18:27:17.094Z,0.70
2022-08-19T18:29:44.599Z,0.90
2022-08-19T18:32:14.428Z,0.80
2022-08-19T18:34:45.953Z,0.90
2022-08-19T18:37:13.539Z,0.70
2022-08-19T18:39:58.911Z,0.90
2022-08-19T18:42:44.594Z,0.90
2022-08-19T18:45:30.407Z,0.90
2022-08-19T18:48:24.204Z,0.90
2022-08-19T18:50:57.301Z,0.80
2022-08-19T18:53:25.628Z,0.90
2022-08-19T18:55:54.155Z,1.00
2022-08-19T18:58:26.865Z,0.90
2022-08-19T19:00:57.548Z,1.10
2022-08-19T19:03:25.731Z,1.20
2022-08-19T19:05:53.257Z,1.60
2022-08-19T19:08:20.444Z,1.10
2022-08-19T19:10:53.857Z,1.20
2022-08-19T19:13:24.341Z,0.80
2022-08-19T19:15:51.720Z,1.20
2022-08-19T19:18:18.899Z,1.20
2022-08-19T19:20:45.784Z,0.80
2022-08-19T19:23:13.555Z,1.10
2022-08-19T19:25:49.820Z,1.00
2022-08-19T19:28:17.729Z,1.30
2022-08-19T19:30:44.541Z,1.10
2022-08-19T19:33:11.781Z,1.50
2022-08-19T19:35:41.116Z,1.40
2022-08-19T19:38:13.932Z,1.10
2022-08-19T19:40:40.848Z,1.20
2022-08-19T19:43:10.511Z,1.20
2022-08-19T19:45:38.115Z,1.10
2022-08-19T19:48:05.683Z,0.90
2022-08-19T19:50:32.716Z,1.10
2022-08-19T19:52:59.801Z,1.10
2022-08-19T19:55:26.697Z,1.50
2022-08-19T19:57:54.198Z,1.60
2022-08-19T20:00:22.769Z,2.40
2022-08-19T20:02:50.856Z,1.60
2022-08-19T20:05:20.806Z,1.70
2022-08-19T20:08:06.446Z,1.30
2022-08-19T20:10:33.579Z,1.40
2022-08-19T20:13:02.531Z,1.30
2022-08-19T20:15:31.428Z,1.40
2022-08-19T20:17:59.822Z,6.70
2022-08-19T20:20:27.089Z,7.50
2022-08-19T20:22:54.326Z,2.00
2022-08-19T20:25:22.240Z,7.80
2022-08-19T20:27:50.031Z,1.30
2022-08-19T20:30:21.222Z,2.80
2022-08-19T20:32:50.709Z,1.20
2022-08-19T20:35:20.640Z,1.40
2022-08-19T20:37:47.775Z,1.30
2022-08-19T20:40:15.399Z,1.90
2022-08-19T20:42:43.815Z,1.60
2022-08-19T20:45:19.688Z,1.50
2022-08-19T20:48:03.300Z,1.50
2022-08-19T20:50:32.122Z,1.50
2022-08-19T20:52:59.065Z,1.50
2022-08-19T20:55:27.307Z,1.60
2022-08-19T20:57:54.833Z,1.80
2022-08-19T21:00:22.391Z,1.70
2022-08-19T21:02:49.254Z,1.70
2022-08-19T21:05:16.532Z,2.10
2022-08-19T21:07:43.488Z,1.30
2022-08-19T21:10:10.608Z,1.50
2022-08-19T21:12:37.532Z,1.70
2022-08-19T21:15:04.919Z,1.80
2022-08-19T21:17:31.805Z,4.20
2022-08-19T21:19:58.642Z,2.90
2022-08-19T21:22:25.327Z,1.90
2022-08-19T21:24:52.249Z,4.90
2022-08-19T21:27:18.985Z,8.40
2022-08-19T21:29:45.519Z,8.20
2022-08-19T21:32:14.491Z,11.10
2022-08-19T21:34:43.965Z,1.90
2022-08-19T21:37:19.029Z,2.80
2022-08-19T21:39:52.533Z,2.60
2022-08-19T21:42:19.327Z,3.80
2022-08-19T21:44:46.083Z,4.40
2022-08-19T21:47:13.184Z,3.90
2022-08-19T21:49:41.075Z,4.10
2022-08-19T21:52:08.256Z,3.80
2022-08-19T21:54:38.009Z,3.50
2022-08-19T21:57:10.046Z,2.70
2022-08-19T21:59:43.932Z,3.10
2022-08-19T22:02:21.547Z,3.00
2022-08-19T22:04:50.129Z,5.00
2022-08-19T22:07:17.741Z,3.70
2022-08-19T22:09:46.346Z,8.10
2022-08-19T22:12:25.339Z,5.10
2022-08-19T22:14:52.992Z,3.60
2022-08-19T22:17:20.523Z,2.90
2022-08-19T22:19:47.297Z,2.70
2022-08-19T22:22:21.158Z,2.70
2022-08-19T22:24:47.923Z,3.00
2022-08-19T22:27:14.456Z,2.50
2022-08-19T22:29:41.084Z,3.70
2022-08-19T22:32:26.692Z,2.40
2022-08-19T22:34:57.036Z,2.00
2022-08-19T22:37:23.853Z,3.10
2022-08-19T22:39:50.692Z,2.10
2022-08-19T22:42:22.035Z,3.60
2022-08-19T22:44:48.936Z,2.10
2022-08-19T22:47:16.318Z,2.50
2022-08-19T22:49:44.683Z,2.60
2022-08-19T22:52:18.253Z,2.30
2022-08-19T22:54:54.008Z,3.20
2022-08-19T22:57:22.406Z,2.10
2022-08-19T22:59:52.084Z,1.90
2022-08-19T23:02:21.753Z,2.10
2022-08-19T23:04:49.800Z,2.20
2022-08-19T23:07:17.868Z,2.20
2022-08-19T23:09:50.728Z,2.30
2022-08-19T23:12:27.000Z,2.50
2022-08-19T23:14:53.631Z,2.30
2022-08-19T23:17:20.479Z,2.50
2022-08-19T23:19:49.660Z,2.10
2022-08-19T23:22:18.451Z,2.40
2022-08-19T23:24:45.086Z,2.30
2022-08-19T23:27:30.296Z,2.30
2022-08-19T23:30:15.650Z,2.20
2022-08-19T23:32:42.539Z,2.20
2022-08-19T23:35:12.528Z,2.40
2022-08-19T23:37:39.387Z,2.50
2022-08-19T23:40:08.556Z,2.40
2022-08-19T23:42:35.580Z,2.30
2022-08-19T23:45:06.779Z,2.40
2022-08-19T23:47:35.583Z,2.70
2022-08-19T23:50:06.125Z,2.50
2022-08-19T23:52:35.380Z,2.60
2022-08-19T23:55:06.301Z,2.60
2022-08-19T23:57:33.234Z,2.60
